sensor_id;sensor_type;location;lat;lon;timestamp;pressure;altitude;pressure_sealevel;temperature;humidity
46583;BME280;32309;48.858;8.252;2023-04-26T00:01:07;100474.31;;;7.77;93.13
46583;BME280;32309;48.858;8.252;2023-04-26T00:03:08;100476.13;;;7.75;93.84
46583;BME280;32309;48.858;8.252;2023-04-26T00:05:11;100471.06;;;7.72;93.67
46583;BME280;32309;48.858;8.252;2023-04-26T00:07:12;100466.97;;;7.68;93.45
46583;BME280;32309;48.858;8.252;2023-04-26T00:09:12;100466.00;;;7.70;92.62
46583;BME280;32309;48.858;8.252;2023-04-26T00:11:15;100460.91;;;7.69;93.61
46583;BME280;32309;48.858;8.252;2023-04-26T00:13:16;100468.00;;;7.63;94.15
46583;BME280;32309;48.858;8.252;2023-04-26T00:15:16;100466.25;;;7.64;94.52
46583;BME280;32309;48.858;8.252;2023-04-26T00:17:16;100461.06;;;7.64;93.71
46583;BME280;32309;48.858;8.252;2023-04-26T00:19:17;100460.97;;;7.67;94.18
46583;BME280;32309;48.858;8.252;2023-04-26T00:21:17;100468.63;;;7.69;93.93
46583;BME280;32309;48.858;8.252;2023-04-26T00:23:18;100468.78;;;7.65;91.94
46583;BME280;32309;48.858;8.252;2023-04-26T00:25:18;100462.19;;;7.58;92.03
46583;BME280;32309;48.858;8.252;2023-04-26T00:27:19;100471.84;;;7.53;92.10
46583;BME280;32309;48.858;8.252;2023-04-26T00:29:20;100469.34;;;7.52;92.96
46583;BME280;32309;48.858;8.252;2023-04-26T00:31:20;100464.19;;;7.52;93.32
46583;BME280;32309;48.858;8.252;2023-04-26T00:33:21;100465.94;;;7.51;92.27
46583;BME280;32309;48.858;8.252;2023-04-26T00:35:21;100460.88;;;7.48;93.29
46583;BME280;32309;48.858;8.252;2023-04-26T00:37:21;100459.25;;;7.47;92.18
46583;BME280;32309;48.858;8.252;2023-04-26T00:39:22;100454.13;;;7.45;92.81
46583;BME280;32309;48.858;8.252;2023-04-26T00:41:23;100458.44;;;7.45;92.49
46583;BME280;32309;48.858;8.252;2023-04-26T00:43:23;100458.63;;;7.40;93.00
46583;BME280;32309;48.858;8.252;2023-04-26T00:45:23;100461.34;;;7.37;93.14
46583;BME280;32309;48.858;8.252;2023-04-26T00:47:34;100452.78;;;7.37;93.56
46583;BME280;32309;48.858;8.252;2023-04-26T00:49:35;100457.06;;;7.36;92.88
46583;BME280;32309;48.858;8.252;2023-04-26T00:51:38;100451.91;;;7.36;92.94
46583;BME280;32309;48.858;8.252;2023-04-26T00:53:38;100462.31;;;7.35;92.49
46583;BME280;32309;48.858;8.252;2023-04-26T00:55:39;100464.22;;;7.29;90.11
46583;BME280;32309;48.858;8.252;2023-04-26T00:57:41;100466.53;;;7.15;90.15
46583;BME280;32309;48.858;8.252;2023-04-26T00:59:46;100466.81;;;7.07;92.46
46583;BME280;32309;48.858;8.252;2023-04-26T01:01:46;100463.34;;;7.08;93.17
46583;BME280;32309;48.858;8.252;2023-04-26T01:03:48;100461.56;;;7.10;93.10
46583;BME280;32309;48.858;8.252;2023-04-26T01:05:48;100470.03;;;7.14;92.93
46583;BME280;32309;48.858;8.252;2023-04-26T01:07:49;100463.28;;;7.10;90.01
46583;BME280;32309;48.858;8.252;2023-04-26T01:09:50;100468.88;;;6.99;90.58
46583;BME280;32309;48.858;8.252;2023-04-26T01:11:51;100471.72;;;6.93;91.92
46583;BME280;32309;48.858;8.252;2023-04-26T01:13:57;100469.31;;;6.88;91.66
46583;BME280;32309;48.858;8.252;2023-04-26T01:15:57;100470.97;;;6.89;92.55
46583;BME280;32309;48.858;8.252;2023-04-26T01:17:59;100469.16;;;6.91;92.49
46583;BME280;32309;48.858;8.252;2023-04-26T01:19:59;100463.13;;;6.92;92.38
46583;BME280;32309;48.858;8.252;2023-04-26T01:21:59;100458.81;;;6.93;92.02
46583;BME280;32309;48.858;8.252;2023-04-26T01:24:00;100457.84;;;6.95;92.86
46583;BME280;32309;48.858;8.252;2023-04-26T01:26:00;100462.09;;;6.96;93.11
46583;BME280;32309;48.858;8.252;2023-04-26T01:28:01;100472.47;;;6.95;92.02
46583;BME280;32309;48.858;8.252;2023-04-26T01:30:01;100464.88;;;6.92;89.58
46583;BME280;32309;48.858;8.252;2023-04-26T01:32:02;100468.56;;;6.85;89.20
46583;BME280;32309;48.858;8.252;2023-04-26T01:34:02;100467.00;;;6.80;89.55
46583;BME280;32309;48.858;8.252;2023-04-26T01:36:07;100462.00;;;6.77;91.16
46583;BME280;32309;48.858;8.252;2023-04-26T01:38:08;100467.97;;;6.78;90.99
46583;BME280;32309;48.858;8.252;2023-04-26T01:40:09;100460.25;;;6.78;91.44
46583;BME280;32309;48.858;8.252;2023-04-26T01:42:12;100463.69;;;6.78;91.24
46583;BME280;32309;48.858;8.252;2023-04-26T01:44:12;100458.53;;;6.78;92.50
46583;BME280;32309;48.858;8.252;2023-04-26T01:46:15;100463.69;;;6.78;91.60
46583;BME280;32309;48.858;8.252;2023-04-26T01:48:16;100463.69;;;6.78;92.07
46583;BME280;32309;48.858;8.252;2023-04-26T01:50:16;100467.16;;;6.77;90.99
46583;BME280;32309;48.858;8.252;2023-04-26T01:52:16;100465.41;;;6.78;91.30
46583;BME280;32309;48.858;8.252;2023-04-26T01:54:17;100474.81;;;6.79;91.99
46583;BME280;32309;48.858;8.252;2023-04-26T01:56:18;100472.22;;;6.79;92.21
46583;BME280;32309;48.858;8.252;2023-04-26T01:58:18;100466.19;;;6.80;92.96
46583;BME280;32309;48.858;8.252;2023-04-26T02:00:19;100470.47;;;6.79;92.60
46583;BME280;32309;48.858;8.252;2023-04-26T02:02:19;100471.41;;;6.78;92.24
46583;BME280;32309;48.858;8.252;2023-04-26T02:04:21;100473.03;;;6.81;93.26
46583;BME280;32309;48.858;8.252;2023-04-26T02:06:23;100470.44;;;6.81;92.62
46583;BME280;32309;48.858;8.252;2023-04-26T02:08:26;100466.94;;;6.82;93.18
46583;BME280;32309;48.858;8.252;2023-04-26T02:10:26;100469.66;;;6.79;92.29
46583;BME280;32309;48.858;8.252;2023-04-26T02:12:27;100461.94;;;6.79;93.04
46583;BME280;32309;48.858;8.252;2023-04-26T02:14:27;100464.56;;;6.77;92.57
46583;BME280;32309;48.858;8.252;2023-04-26T02:16:27;100472.22;;;6.79;93.17
46583;BME280;32309;48.858;8.252;2023-04-26T02:18:28;100473.13;;;6.78;92.83
46583;BME280;32309;48.858;8.252;2023-04-26T02:20:28;100471.34;;;6.80;92.73
46583;BME280;32309;48.858;8.252;2023-04-26T02:22:38;100473.13;;;6.78;92.48
46583;BME280;32309;48.858;8.252;2023-04-26T02:24:38;100472.34;;;6.76;92.65
46583;BME280;32309;48.858;8.252;2023-04-26T02:26:38;100471.44;;;6.77;92.74
46583;BME280;32309;48.858;8.252;2023-04-26T02:28:41;100469.78;;;6.76;93.19
46583;BME280;32309;48.858;8.252;2023-04-26T02:30:44;100472.38;;;6.74;92.58
46583;BME280;32309;48.858;8.252;2023-04-26T02:32:44;100477.59;;;6.73;92.78
46583;BME280;32309;48.858;8.252;2023-04-26T02:34:47;100483.72;;;6.70;92.79
46583;BME280;32309;48.858;8.252;2023-04-26T02:36:47;100475.16;;;6.70;92.34
46583;BME280;32309;48.858;8.252;2023-04-26T02:38:48;100482.88;;;6.70;92.36
46583;BME280;32309;48.858;8.252;2023-04-26T02:40:48;100479.56;;;6.66;91.58
46583;BME280;32309;48.858;8.252;2023-04-26T02:42:57;100481.41;;;6.64;91.81
46583;BME280;32309;48.858;8.252;2023-04-26T02:44:58;100473.75;;;6.61;91.94
46583;BME280;32309;48.858;8.252;2023-04-26T02:47:00;100476.25;;;6.64;92.54
46583;BME280;32309;48.858;8.252;2023-04-26T02:49:12;100478.84;;;6.62;92.46
46583;BME280;32309;48.858;8.252;2023-04-26T02:51:17;100485.81;;;6.60;91.28
46583;BME280;32309;48.858;8.252;2023-04-26T02:53:23;100478.22;;;6.57;91.63
46583;BME280;32309;48.858;8.252;2023-04-26T02:55:25;100474.78;;;6.57;92.01
46583;BME280;32309;48.858;8.252;2023-04-26T02:57:29;100477.41;;;6.55;91.72
46583;BME280;32309;48.858;8.252;2023-04-26T02:59:30;100474.09;;;6.52;91.75
46583;BME280;32309;48.858;8.252;2023-04-26T03:01:33;100472.31;;;6.54;91.96
46583;BME280;32309;48.858;8.252;2023-04-26T03:03:33;100465.56;;;6.51;91.68
46583;BME280;32309;48.858;8.252;2023-04-26T03:05:34;100473.28;;;6.51;91.16
46583;BME280;32309;48.858;8.252;2023-04-26T03:07:35;100464.75;;;6.49;91.73
46583;BME280;32309;48.858;8.252;2023-04-26T03:09:36;100467.53;;;6.44;91.38
46583;BME280;32309;48.858;8.252;2023-04-26T03:11:37;100462.59;;;6.38;91.17
46583;BME280;32309;48.858;8.252;2023-04-26T03:13:38;100460.97;;;6.36;90.27
46583;BME280;32309;48.858;8.252;2023-04-26T03:15:38;100462.09;;;6.28;90.41
46583;BME280;32309;48.858;8.252;2023-04-26T03:17:38;100463.81;;;6.28;90.76
46583;BME280;32309;48.858;8.252;2023-04-26T03:19:39;100457.00;;;6.27;90.71
46583;BME280;32309;48.858;8.252;2023-04-26T03:21:39;100460.47;;;6.26;91.03
46583;BME280;32309;48.858;8.252;2023-04-26T03:23:39;100458.00;;;6.23;90.53
46583;BME280;32309;48.858;8.252;2023-04-26T03:25:45;100461.53;;;6.20;90.78
46583;BME280;32309;48.858;8.252;2023-04-26T03:27:47;100459.81;;;6.21;91.08
46583;BME280;32309;48.858;8.252;2023-04-26T03:29:48;100461.53;;;6.20;91.09
46583;BME280;32309;48.858;8.252;2023-04-26T03:31:48;100464.22;;;6.17;90.43
46583;BME280;32309;48.858;8.252;2023-04-26T03:33:51;100466.91;;;6.14;90.85
46583;BME280;32309;48.858;8.252;2023-04-26T03:35:54;100465.22;;;6.13;91.09
46583;BME280;32309;48.858;8.252;2023-04-26T03:37:54;100477.25;;;6.12;89.83
46583;BME280;32309;48.858;8.252;2023-04-26T03:39:58;100479.16;;;6.07;90.18
46583;BME280;32309;48.858;8.252;2023-04-26T03:41:58;100470.75;;;6.02;90.63
46583;BME280;32309;48.858;8.252;2023-04-26T03:44:02;100474.16;;;6.03;90.64
46583;BME280;32309;48.858;8.252;2023-04-26T03:46:03;100475.03;;;6.02;89.75
46583;BME280;32309;48.858;8.252;2023-04-26T03:48:06;100474.16;;;6.03;89.34
46583;BME280;32309;48.858;8.252;2023-04-26T03:50:07;100475.19;;;5.97;90.62
46583;BME280;32309;48.858;8.252;2023-04-26T03:52:11;100470.94;;;5.96;90.52
46583;BME280;32309;48.858;8.252;2023-04-26T03:54:11;100462.38;;;5.95;90.06
46583;BME280;32309;48.858;8.252;2023-04-26T03:56:14;100466.78;;;5.92;89.62
46583;BME280;32309;48.858;8.252;2023-04-26T03:58:17;100463.66;;;5.83;88.81
46583;BME280;32309;48.858;8.252;2023-04-26T04:00:20;100463.75;;;5.80;89.98
46583;BME280;32309;48.858;8.252;2023-04-26T04:02:46;100470.88;;;5.72;89.67
46583;BME280;32309;48.858;8.252;2023-04-26T04:05:05;100465.91;;;5.68;89.23
46583;BME280;32309;48.858;8.252;2023-04-26T04:07:26;100461.66;;;5.66;90.43
46583;BME280;32309;48.858;8.252;2023-04-26T04:14:38;100466.75;;;5.68;89.56
46583;BME280;32309;48.858;8.252;2023-04-26T04:16:51;100465.94;;;5.66;89.97
46583;BME280;32309;48.858;8.252;2023-04-26T04:18:54;100469.44;;;5.65;89.73
46583;BME280;32309;48.858;8.252;2023-04-26T04:20:54;100471.09;;;5.66;89.61
46583;BME280;32309;48.858;8.252;2023-04-26T04:22:55;100468.56;;;5.64;89.52
46583;BME280;32309;48.858;8.252;2023-04-26T04:24:57;100475.47;;;5.64;89.55
46583;BME280;32309;48.858;8.252;2023-04-26T04:26:59;100473.84;;;5.61;88.50
46583;BME280;32309;48.858;8.252;2023-04-26T04:29:00;100479.16;;;5.55;88.00
46583;BME280;32309;48.858;8.252;2023-04-26T04:31:07;100480.34;;;5.46;87.90
46583;BME280;32309;48.858;8.252;2023-04-26T04:33:12;100478.00;;;5.39;88.19
46583;BME280;32309;48.858;8.252;2023-04-26T04:35:12;100484.81;;;5.40;89.29
46583;BME280;32309;48.858;8.252;2023-04-26T04:37:16;100482.28;;;5.38;88.40
46583;BME280;32309;48.858;8.252;2023-04-26T04:39:17;100485.03;;;5.33;87.67
46583;BME280;32309;48.858;8.252;2023-04-26T04:41:17;100488.03;;;5.20;87.80
46583;BME280;32309;48.858;8.252;2023-04-26T04:43:21;100488.19;;;5.15;87.41
46583;BME280;32309;48.858;8.252;2023-04-26T04:45:22;100489.34;;;5.05;89.01
46583;BME280;32309;48.858;8.252;2023-04-26T04:47:25;100493.78;;;4.99;88.25
46583;BME280;32309;48.858;8.252;2023-04-26T04:49:26;100492.97;;;4.97;89.49
46583;BME280;32309;48.858;8.252;2023-04-26T04:51:36;100494.59;;;5.02;89.92
46583;BME280;32309;48.858;8.252;2023-04-26T04:53:41;100494.38;;;5.08;90.32
46583;BME280;32309;48.858;8.252;2023-04-26T04:55:42;100494.16;;;5.15;90.25
46583;BME280;32309;48.858;8.252;2023-04-26T04:57:43;100504.31;;;5.20;88.92
46583;BME280;32309;48.858;8.252;2023-04-26T04:59:46;100504.31;;;5.19;87.65
46583;BME280;32309;48.858;8.252;2023-04-26T05:01:46;100507.94;;;5.13;88.36
46583;BME280;32309;48.858;8.252;2023-04-26T05:03:46;100503.69;;;5.12;88.45
46583;BME280;32309;48.858;8.252;2023-04-26T05:05:47;100507.50;;;4.98;88.09
46583;BME280;32309;48.858;8.252;2023-04-26T05:07:47;100500.94;;;4.90;88.21
46583;BME280;32309;48.858;8.252;2023-04-26T05:09:49;100512.97;;;4.88;87.84
46583;BME280;32309;48.858;8.252;2023-04-26T05:11:50;100508.66;;;4.90;89.34
46583;BME280;32309;48.858;8.252;2023-04-26T05:13:53;100505.09;;;4.94;89.07
46583;BME280;32309;48.858;8.252;2023-04-26T05:15:55;100501.50;;;4.99;88.79
46583;BME280;32309;48.858;8.252;2023-04-26T05:17:56;100515.16;;;5.02;88.44
46583;BME280;32309;48.858;8.252;2023-04-26T05:19:58;100507.47;;;5.00;88.64
46583;BME280;32309;48.858;8.252;2023-04-26T05:21:58;100513.31;;;5.05;87.81
46583;BME280;32309;48.858;8.252;2023-04-26T05:23:59;100511.50;;;5.09;87.44
46583;BME280;32309;48.858;8.252;2023-04-26T05:26:04;100515.03;;;5.05;86.94
46583;BME280;32309;48.858;8.252;2023-04-26T05:28:06;100517.72;;;5.02;86.74
46583;BME280;32309;48.858;8.252;2023-04-26T05:30:11;100521.28;;;4.96;86.95
46583;BME280;32309;48.858;8.252;2023-04-26T05:32:12;100518.88;;;4.91;87.35
46583;BME280;32309;48.858;8.252;2023-04-26T05:34:12;100518.88;;;4.91;87.91
46583;BME280;32309;48.858;8.252;2023-04-26T05:36:12;100516.03;;;5.00;87.98
46583;BME280;32309;48.858;8.252;2023-04-26T05:38:13;100514.81;;;5.12;88.58
46583;BME280;32309;48.858;8.252;2023-04-26T05:40:14;100518.91;;;5.18;87.32
46583;BME280;32309;48.858;8.252;2023-04-26T05:42:14;100518.69;;;5.26;87.84
46583;BME280;32309;48.858;8.252;2023-04-26T05:44:15;100521.94;;;5.31;87.63
46583;BME280;32309;48.858;8.252;2023-04-26T05:46:15;100524.41;;;5.34;87.17
46583;BME280;32309;48.858;8.252;2023-04-26T05:48:15;100528.50;;;5.40;87.52
46583;BME280;32309;48.858;8.252;2023-04-26T05:50:16;100533.38;;;5.49;87.71
46583;BME280;32309;48.858;8.252;2023-04-26T05:52:16;100538.13;;;5.61;87.82
46583;BME280;32309;48.858;8.252;2023-04-26T05:54:16;100537.06;;;5.67;86.01
46583;BME280;32309;48.858;8.252;2023-04-26T05:56:17;100533.44;;;5.73;86.34
46583;BME280;32309;48.858;8.252;2023-04-26T05:58:17;100541.03;;;5.77;86.21
46583;BME280;32309;48.858;8.252;2023-04-26T06:00:17;100534.00;;;5.82;85.99
46583;BME280;32309;48.858;8.252;2023-04-26T06:02:21;100538.00;;;5.91;85.72
46583;BME280;32309;48.858;8.252;2023-04-26T06:04:21;100540.91;;;6.07;85.25
46583;BME280;32309;48.858;8.252;2023-04-26T06:06:22;100538.38;;;6.31;85.66
46583;BME280;32309;48.858;8.252;2023-04-26T06:08:22;100547.00;;;6.54;84.57
46583;BME280;32309;48.858;8.252;2023-04-26T06:10:22;100549.25;;;6.63;84.48
46583;BME280;32309;48.858;8.252;2023-04-26T06:12:23;100545.72;;;6.65;85.25
46583;BME280;32309;48.858;8.252;2023-04-26T06:14:23;100549.66;;;6.74;84.15
46583;BME280;32309;48.858;8.252;2023-04-26T06:16:23;100555.47;;;6.81;84.41
46583;BME280;32309;48.858;8.252;2023-04-26T06:18:23;100553.50;;;6.88;83.92
46583;BME280;32309;48.858;8.252;2023-04-26T06:20:24;100550.06;;;6.87;83.60
46583;BME280;32309;48.858;8.252;2023-04-26T06:22:25;100545.56;;;6.92;84.18
46583;BME280;32309;48.858;8.252;2023-04-26T06:24:25;100537.44;;;7.03;84.09
46583;BME280;32309;48.858;8.252;2023-04-26T06:26:25;100533.59;;;7.13;83.27
46583;BME280;32309;48.858;8.252;2023-04-26T06:28:25;100542.97;;;7.16;82.59
46583;BME280;32309;48.858;8.252;2023-04-26T06:30:26;100542.06;;;7.17;82.86
46583;BME280;32309;48.858;8.252;2023-04-26T06:32:26;100547.75;;;7.25;82.90
46583;BME280;32309;48.858;8.252;2023-04-26T06:34:27;100540.03;;;7.25;82.75
46583;BME280;32309;48.858;8.252;2023-04-26T06:36:27;100540.44;;;7.14;83.28
46583;BME280;32309;48.858;8.252;2023-04-26T06:38:27;100541.94;;;7.20;83.61
46583;BME280;32309;48.858;8.252;2023-04-26T06:40:28;100539.34;;;7.20;83.91
46583;BME280;32309;48.858;8.252;2023-04-26T06:42:28;100543.78;;;7.16;84.32
46583;BME280;32309;48.858;8.252;2023-04-26T06:44:28;100533.66;;;7.12;84.55
46583;BME280;32309;48.858;8.252;2023-04-26T06:46:29;100535.06;;;7.21;84.68
46583;BME280;32309;48.858;8.252;2023-04-26T06:48:30;100533.97;;;7.26;83.55
46583;BME280;32309;48.858;8.252;2023-04-26T06:50:30;100533.59;;;7.36;82.33
46583;BME280;32309;48.858;8.252;2023-04-26T06:52:30;100540.50;;;7.35;81.89
46583;BME280;32309;48.858;8.252;2023-04-26T06:54:30;100532.81;;;7.33;81.72
46583;BME280;32309;48.858;8.252;2023-04-26T06:56:31;100533.59;;;7.36;82.00
46583;BME280;32309;48.858;8.252;2023-04-26T06:58:31;100530.13;;;7.37;81.13
46583;BME280;32309;48.858;8.252;2023-04-26T07:00:32;100527.56;;;7.37;81.23
46583;BME280;32309;48.858;8.252;2023-04-26T07:02:32;100525.16;;;7.32;81.36
46583;BME280;32309;48.858;8.252;2023-04-26T07:04:32;100514.72;;;7.35;82.23
46583;BME280;32309;48.858;8.252;2023-04-26T07:06:32;100511.81;;;7.43;82.01
46583;BME280;32309;48.858;8.252;2023-04-26T07:08:33;100520.41;;;7.43;80.64
46583;BME280;32309;48.858;8.252;2023-04-26T07:10:33;100515.25;;;7.43;80.66
46583;BME280;32309;48.858;8.252;2023-04-26T07:12:33;100519.38;;;7.47;80.92
46583;BME280;32309;48.858;8.252;2023-04-26T07:14:35;100515.63;;;7.55;81.11
46583;BME280;32309;48.858;8.252;2023-04-26T07:16:37;100511.25;;;7.57;80.42
46583;BME280;32309;48.858;8.252;2023-04-26T07:18:40;100513.19;;;7.52;80.61
46583;BME280;32309;48.858;8.252;2023-04-26T07:20:41;100510.81;;;7.47;81.51
46583;BME280;32309;48.858;8.252;2023-04-26T07:22:41;100513.19;;;7.52;81.20
46583;BME280;32309;48.858;8.252;2023-04-26T07:24:41;100509.56;;;7.56;81.99
46583;BME280;32309;48.858;8.252;2023-04-26T07:26:42;100513.91;;;7.55;82.06
46583;BME280;32309;48.858;8.252;2023-04-26T07:28:42;100517.72;;;7.67;81.85
46583;BME280;32309;48.858;8.252;2023-04-26T07:30:42;100516.38;;;7.79;81.67
46583;BME280;32309;48.858;8.252;2023-04-26T07:32:43;100512.69;;;7.85;81.18
46583;BME280;32309;48.858;8.252;2023-04-26T07:34:43;100519.28;;;7.92;81.25
46583;BME280;32309;48.858;8.252;2023-04-26T07:36:43;100516.63;;;7.93;81.50
46583;BME280;32309;48.858;8.252;2023-04-26T07:38:43;100515.31;;;8.04;81.35
46583;BME280;32309;48.858;8.252;2023-04-26T07:40:44;100519.50;;;8.06;81.19
46583;BME280;32309;48.858;8.252;2023-04-26T07:42:44;100518.50;;;8.10;80.57
46583;BME280;32309;48.858;8.252;2023-04-26T07:44:46;100520.69;;;8.20;79.68
46583;BME280;32309;48.858;8.252;2023-04-26T07:46:47;100515.09;;;8.29;78.39
46583;BME280;32309;48.858;8.252;2023-04-26T07:48:47;100516.72;;;8.31;78.05
46583;BME280;32309;48.858;8.252;2023-04-26T07:50:47;100519.31;;;8.31;78.54
46583;BME280;32309;48.858;8.252;2023-04-26T07:52:48;100509.56;;;8.37;78.58
46583;BME280;32309;48.858;8.252;2023-04-26T07:54:48;100504.06;;;8.44;77.57
46583;BME280;32309;48.858;8.252;2023-04-26T07:56:48;100510.63;;;8.53;77.54
46583;BME280;32309;48.858;8.252;2023-04-26T07:58:49;100503.41;;;8.60;75.94
46583;BME280;32309;48.858;8.252;2023-04-26T08:00:49;100512.22;;;8.56;77.00
46583;BME280;32309;48.858;8.252;2023-04-26T08:02:49;100515.28;;;8.64;76.56
46583;BME280;32309;48.858;8.252;2023-04-26T08:04:50;100515.66;;;8.75;75.33
46583;BME280;32309;48.858;8.252;2023-04-26T08:06:51;100506.91;;;8.78;75.32
46583;BME280;32309;48.858;8.252;2023-04-26T08:08:51;100510.13;;;8.83;73.54
46583;BME280;32309;48.858;8.252;2023-04-26T08:10:52;100507.66;;;8.80;73.84
46583;BME280;32309;48.858;8.252;2023-04-26T08:12:54;100501.44;;;8.84;74.55
46583;BME280;32309;48.858;8.252;2023-04-26T08:14:56;100493.25;;;8.93;74.88
46583;BME280;32309;48.858;8.252;2023-04-26T08:16:56;100505.47;;;9.09;73.73
46583;BME280;32309;48.858;8.252;2023-04-26T08:18:56;100507.84;;;9.13;73.48
46583;BME280;32309;48.858;8.252;2023-04-26T08:21:01;100508.94;;;9.27;72.12
46583;BME280;32309;48.858;8.252;2023-04-26T08:23:01;100508.06;;;9.26;72.53
46583;BME280;32309;48.858;8.252;2023-04-26T08:25:02;100512.06;;;9.33;71.34
46583;BME280;32309;48.858;8.252;2023-04-26T08:27:03;100510.38;;;9.32;71.74
46583;BME280;32309;48.858;8.252;2023-04-26T08:29:04;100508.41;;;9.38;69.88
46583;BME280;32309;48.858;8.252;2023-04-26T08:31:05;100515.38;;;9.36;70.18
46583;BME280;32309;48.858;8.252;2023-04-26T08:33:05;100518.38;;;9.45;69.06
46583;BME280;32309;48.858;8.252;2023-04-26T08:35:06;100512.97;;;9.50;67.60
46583;BME280;32309;48.858;8.252;2023-04-26T08:37:06;100516.34;;;9.52;68.60
46583;BME280;32309;48.858;8.252;2023-04-26T08:39:07;100504.00;;;9.57;69.31
46583;BME280;32309;48.858;8.252;2023-04-26T08:41:08;100500.25;;;9.63;69.91
46583;BME280;32309;48.858;8.252;2023-04-26T08:43:13;100497.28;;;9.71;69.61
46583;BME280;32309;48.858;8.252;2023-04-26T08:45:16;100501.09;;;9.81;66.69
46583;BME280;32309;48.858;8.252;2023-04-26T08:47:28;100489.75;;;9.83;67.26
46583;BME280;32309;48.858;8.252;2023-04-26T08:49:39;100494.03;;;9.85;66.63
46583;BME280;32309;48.858;8.252;2023-04-26T08:51:41;100489.91;;;9.80;66.58
46583;BME280;32309;48.858;8.252;2023-04-26T08:53:44;100491.50;;;9.83;66.11
46583;BME280;32309;48.858;8.252;2023-04-26T08:55:48;100491.28;;;9.88;66.84
46583;BME280;32309;48.858;8.252;2023-04-26T08:57:49;100489.28;;;9.93;66.72
46583;BME280;32309;48.858;8.252;2023-04-26T08:59:50;100484.72;;;9.98;66.56
46583;BME280;32309;48.858;8.252;2023-04-26T09:01:51;100485.44;;;10.00;63.29
46583;BME280;32309;48.858;8.252;2023-04-26T09:03:53;100481.78;;;10.04;66.00
46583;BME280;32309;48.858;8.252;2023-04-26T09:05:55;100488.94;;;10.16;64.93
46583;BME280;32309;48.858;8.252;2023-04-26T09:07:56;100482.84;;;10.18;63.43
46583;BME280;32309;48.858;8.252;2023-04-26T09:10:00;100479.69;;;10.28;64.30
46583;BME280;32309;48.858;8.252;2023-04-26T09:12:03;100475.72;;;10.39;62.26
46583;BME280;32309;48.858;8.252;2023-04-26T09:14:04;100476.72;;;10.36;62.03
46583;BME280;32309;48.858;8.252;2023-04-26T09:16:05;100480.13;;;10.37;60.98
46583;BME280;32309;48.858;8.252;2023-04-26T09:18:18;100487.19;;;10.33;58.91
46583;BME280;32309;48.858;8.252;2023-04-26T09:22:28;100484.91;;;10.44;60.77
46583;BME280;32309;48.858;8.252;2023-04-26T09:24:46;100478.72;;;10.63;56.95
46583;BME280;32309;48.858;8.252;2023-04-26T09:26:49;100473.22;;;10.69;56.33
46583;BME280;32309;48.858;8.252;2023-04-26T09:29:09;100475.03;;;10.67;57.23
46583;BME280;32309;48.858;8.252;2023-04-26T09:31:13;100471.84;;;10.78;57.79
46583;BME280;32309;48.858;8.252;2023-04-26T09:33:36;100464.91;;;10.94;57.88
46583;BME280;32309;48.858;8.252;2023-04-26T09:35:57;100464.13;;;11.08;58.11
46583;BME280;32309;48.858;8.252;2023-04-26T09:38:14;100468.78;;;11.18;57.90
46583;BME280;32309;48.858;8.252;2023-04-26T09:40:17;100463.53;;;11.19;53.13
46583;BME280;32309;48.858;8.252;2023-04-26T09:42:18;100463.63;;;11.02;54.48
46583;BME280;32309;48.858;8.252;2023-04-26T09:44:19;100467.00;;;11.04;54.42
46583;BME280;32309;48.858;8.252;2023-04-26T09:46:21;100462.53;;;11.06;53.06
46583;BME280;32309;48.858;8.252;2023-04-26T09:48:25;100461.47;;;11.10;53.20
46583;BME280;32309;48.858;8.252;2023-04-26T09:50:30;100454.75;;;11.06;53.21
46583;BME280;32309;48.858;8.252;2023-04-26T09:52:31;100468.41;;;11.09;52.37
46583;BME280;32309;48.858;8.252;2023-04-26T09:56:57;100466.69;;;11.24;52.61
46583;BME280;32309;48.858;8.252;2023-04-26T09:58:58;100461.81;;;11.34;53.59
46583;BME280;32309;48.858;8.252;2023-04-26T10:01:04;100465.56;;;11.44;51.84
46583;BME280;32309;48.858;8.252;2023-04-26T10:03:06;100450.91;;;11.43;52.11
46583;BME280;32309;48.858;8.252;2023-04-26T10:05:07;100446.81;;;11.39;51.22
46583;BME280;32309;48.858;8.252;2023-04-26T10:07:08;100453.88;;;11.52;52.63
46583;BME280;32309;48.858;8.252;2023-04-26T10:09:09;100456.69;;;11.63;52.42
46583;BME280;32309;48.858;8.252;2023-04-26T10:11:09;100455.47;;;11.69;51.74
46583;BME280;32309;48.858;8.252;2023-04-26T10:13:10;100453.91;;;11.66;51.65
46583;BME280;32309;48.858;8.252;2023-04-26T10:15:11;100445.75;;;11.72;52.18
46583;BME280;32309;48.858;8.252;2023-04-26T10:17:12;100451.13;;;11.83;50.12
46583;BME280;32309;48.858;8.252;2023-04-26T10:19:13;100442.97;;;11.90;49.99
46583;BME280;32309;48.858;8.252;2023-04-26T10:21:15;100447.00;;;11.95;49.22
46583;BME280;32309;48.858;8.252;2023-04-26T10:23:21;100442.16;;;11.89;49.06
46583;BME280;32309;48.858;8.252;2023-04-26T10:25:33;100451.44;;;11.93;50.25
46583;BME280;32309;48.858;8.252;2023-04-26T10:34:17;100438.00;;;12.01;50.05
46583;BME280;32309;48.858;8.252;2023-04-26T10:36:18;100440.06;;;11.96;48.63
46583;BME280;32309;48.858;8.252;2023-04-26T10:38:20;100439.09;;;11.82;49.32
46583;BME280;32309;48.858;8.252;2023-04-26T10:40:21;100438.78;;;11.73;49.01
46583;BME280;32309;48.858;8.252;2023-04-26T10:42:26;100443.88;;;11.74;49.93
46583;BME280;32309;48.858;8.252;2023-04-26T10:44:39;100438.88;;;11.71;48.62
46583;BME280;32309;48.858;8.252;2023-04-26T10:46:41;100450.28;;;11.69;50.18
46583;BME280;32309;48.858;8.252;2023-04-26T10:48:42;100448.03;;;11.62;50.13
46583;BME280;32309;48.858;8.252;2023-04-26T10:55:02;100432.22;;;11.67;48.81
46583;BME280;32309;48.858;8.252;2023-04-26T10:57:05;100434.63;;;11.70;48.58
46583;BME280;32309;48.858;8.252;2023-04-26T11:01:16;100416.44;;;11.85;49.65
46583;BME280;32309;48.858;8.252;2023-04-26T11:03:17;100412.41;;;11.95;49.08
46583;BME280;32309;48.858;8.252;2023-04-26T11:05:34;100406.09;;;11.99;47.58
46583;BME280;32309;48.858;8.252;2023-04-26T11:07:37;100406.84;;;12.01;47.14